Terminal Aerodrome Forecast
Issued by NWS

Home | Current Version | Previous Version | Text Only | Print | Product List | Glossary On
Versions: 1 2 3 4 5 6 7 8 9 10 11 12 13 14 15 16 17 18 19 20 21 22 23 24 25 26
853
FTUS46 KMFR 280539 CCA
TAFOTH
TAF COR
KOTH 280539Z 2806/2906 36008KT 3SM BR SCT002 OVC008
     FM281200 VRB03KT 1/2SM FG VV002
     FM281800 35018G28KT P6SM SCT009
      AMD NOT SKED=

USA.gov is the U.S. government's official web portal to all federal, state and local government web resources and services.